Time;durP1;ratioP1;P1;durP2;ratioP2;P2;SDS_P1;SDS_P2;PMS_P1;PMS_P2;Temp;Humidity;BMP_temperature;BMP_pressure;BME280_temperature;BME280_humidity;BME280_pressure;Samples;Min_cycle;Max_cycle;Signal;HPM_P1;HPM_P2
2023/07/10 00:00:52;;;;;;;2.63;1.48;;;;;22.00;96377.00;;;;5034836;28;20554;-55
2023/07/10 00:03:19;;;;;;;0.95;0.95;;;;;21.80;96358.00;;;;5034573;28;20216;-56
2023/07/10 00:05:47;;;;;;;1.58;1.45;;;;;21.80;96354.00;;;;5034633;28;20216;-56
2023/07/10 00:08:15;;;;;;;1.95;1.85;;;;;21.80;96346.00;;;;5034551;28;20203;-56
2023/07/10 00:10:44;;;;;;;1.35;1.25;;;;;21.90;96357.00;;;;5034708;28;20250;-56
2023/07/10 00:13:13;;;;;;;1.10;1.10;;;;;21.90;96347.00;;;;5033075;28;20274;-56
2023/07/10 00:15:40;;;;;;;0.90;0.90;;;;;22.00;96341.00;;;;5034144;28;20641;-55
2023/07/10 00:18:14;;;;;;;0.90;0.90;;;;;22.10;96359.00;;;;5034693;28;20255;-56
2023/07/10 00:20:42;;;;;;;1.35;1.25;;;;;22.10;96357.00;;;;5034736;28;20227;-56
2023/07/10 00:23:09;;;;;;;1.58;1.48;;;;;21.90;96358.00;;;;5034061;28;20213;-56
2023/07/10 00:25:38;;;;;;;1.15;1.15;;;;;22.00;96348.00;;;;5034350;28;20266;-56
2023/07/10 00:28:14;;;;;;;0.98;0.98;;;;;22.00;96362.00;;;;5034386;28;20250;-57
2023/07/10 00:30:41;;;;;;;1.77;1.27;;;;;22.00;96340.00;;;;5034585;28;20185;-57
2023/07/10 00:33:12;;;;;;;1.27;1.02;;;;;22.00;96345.00;;;;5033960;28;20212;-57
2023/07/10 00:35:40;;;;;;;1.73;1.63;;;;;21.90;96340.00;;;;5034213;28;20243;-55
2023/07/10 00:38:18;;;;;;;1.55;1.45;;;;;22.00;96337.00;;;;5033939;28;20197;-56
2023/07/10 00:40:47;;;;;;;0.77;0.77;;;;;21.90;96341.00;;;;5034416;28;20181;-55
2023/07/10 00:43:31;;;;;;;1.40;1.38;;;;;22.00;96331.00;;;;5033974;28;20223;-55
2023/07/10 00:46:10;;;;;;;1.10;1.10;;;;;22.00;96335.00;;;;5032439;28;20235;-55
2023/07/10 00:48:42;;;;;;;1.08;1.08;;;;;22.00;96345.00;;;;5033818;28;20185;-55
2023/07/10 00:51:17;;;;;;;1.85;1.38;;;;;22.00;96350.00;;;;5033863;28;20634;-55
2023/07/10 00:53:46;;;;;;;1.05;1.05;;;;;21.90;96363.00;;;;5033957;28;20184;-55
2023/07/10 00:56:18;;;;;;;1.10;1.10;;;;;21.80;96376.00;;;;5033842;28;20223;-56
2023/07/10 00:58:48;;;;;;;1.20;1.08;;;;;21.80;96374.00;;;;5033844;28;20231;-56
2023/07/10 01:01:19;;;;;;;1.67;1.58;;;;;21.70;96380.00;;;;5033759;28;20213;-55
2023/07/10 01:03:47;;;;;;;1.48;1.38;;;;;21.80;96384.00;;;;5033747;28;20223;-55
2023/07/10 01:06:19;;;;;;;1.60;1.50;;;;;21.60;96395.00;;;;5033360;28;20228;-55
2023/07/10 01:08:50;;;;;;;1.52;1.42;;;;;21.70;96404.00;;;;5033373;28;20184;-55
2023/07/10 01:11:19;;;;;;;1.58;1.48;;;;;21.70;96408.00;;;;5033499;28;20608;-55
2023/07/10 01:13:51;;;;;;;1.55;1.45;;;;;21.50;96410.00;;;;5033586;28;20185;-55
2023/07/10 01:16:20;;;;;;;1.90;1.38;;;;;21.50;96396.00;;;;5033479;28;20177;-55
2023/07/10 01:18:48;;;;;;;2.13;1.67;;;;;21.50;96403.00;;;;5034043;28;20197;-55
2023/07/10 01:21:24;;;;;;;1.10;1.10;;;;;21.60;96396.00;;;;5033134;28;20217;-56
2023/07/10 01:23:52;;;;;;;1.35;1.25;;;;;21.60;96392.00;;;;5033136;28;20181;-55
2023/07/10 01:26:20;;;;;;;0.95;0.95;;;;;21.50;96390.00;;;;5032784;28;20228;-55
2023/07/10 01:28:48;;;;;;;0.75;0.75;;;;;21.40;96388.00;;;;5033184;28;20254;-55
2023/07/10 01:31:18;;;;;;;0.80;0.80;;;;;21.40;96392.00;;;;5033376;28;20209;-54
2023/07/10 01:33:49;;;;;;;1.27;1.17;;;;;21.40;96399.00;;;;5033778;28;20279;-55
2023/07/10 01:36:22;;;;;;;0.93;0.93;;;;;21.30;96405.00;;;;5033225;28;20533;-55
2023/07/10 01:38:55;;;;;;;1.85;1.75;;;;;21.30;96408.00;;;;5033159;28;20193;-55
2023/07/10 01:41:31;;;;;;;0.88;0.88;;;;;21.30;96413.00;;;;5033021;28;20221;-55
2023/07/10 01:43:59;;;;;;;1.00;1.00;;;;;21.00;96412.00;;;;5033704;28;20252;-56
2023/07/10 01:46:28;;;;;;;1.17;1.07;;;;;21.10;96414.00;;;;5033011;28;20224;-56
2023/07/10 01:48:59;;;;;;;1.23;1.23;;;;;21.10;96414.00;;;;5032753;28;20648;-56
2023/07/10 01:51:28;;;;;;;0.80;0.80;;;;;21.20;96405.00;;;;5032838;28;20208;-56
2023/07/10 01:54:03;;;;;;;1.58;1.48;;;;;21.20;96407.00;;;;5032806;28;20200;-56
2023/07/10 01:56:31;;;;;;;0.98;0.98;;;;;21.20;96398.00;;;;5033285;28;20536;-56
2023/07/10 01:58:58;;;;;;;2.45;2.25;;;;;21.00;96396.00;;;;5033045;28;20193;-56
2023/07/10 02:01:26;;;;;;;2.00;1.50;;;;;21.00;96395.00;;;;5032970;28;20217;-56
2023/07/10 02:03:53;;;;;;;0.82;0.82;;;;;21.10;96383.00;;;;5037274;28;20272;-56
2023/07/10 02:06:21;;;;;;;1.05;1.05;;;;;21.10;96382.00;;;;5036666;28;20274;-56
2023/07/10 02:08:50;;;;;;;1.45;1.35;;;;;21.20;96368.00;;;;5036729;28;20192;-56
2023/07/10 02:11:17;;;;;;;1.20;1.20;;;;;21.10;96371.00;;;;5036657;28;20212;-56
2023/07/10 02:13:45;;;;;;;3.92;1.67;;;;;21.10;96380.00;;;;5064162;22;20235;-55
2023/07/10 02:16:15;;;;;;;1.00;1.00;;;;;21.10;96374.00;;;;5056932;28;20554;-55
2023/07/10 02:18:42;;;;;;;0.90;0.90;;;;;21.10;96371.00;;;;5056900;28;20686;-55
2023/07/10 02:21:10;;;;;;;0.85;0.85;;;;;21.10;96372.00;;;;5057060;28;20192;-55
2023/07/10 02:23:40;;;;;;;1.63;1.05;;;;;20.80;96393.00;;;;5056402;28;20211;-55
2023/07/10 02:26:09;;;;;;;0.85;0.85;;;;;20.60;96390.00;;;;5056432;28;20230;-55
2023/07/10 02:28:36;;;;;;;1.55;1.45;;;;;20.50;96388.00;;;;5056957;28;20192;-54
2023/07/10 02:31:05;;;;;;;1.17;1.13;;;;;20.60;96391.00;;;;5056515;28;20199;-54
2023/07/10 02:33:33;;;;;;;1.27;1.20;;;;;20.60;96397.00;;;;5056475;28;20552;-55
2023/07/10 02:36:00;;;;;;;1.10;1.10;;;;;20.70;96377.00;;;;5056754;28;20188;-55
2023/07/10 02:38:28;;;;;;;4.18;1.90;;;;;20.90;96366.00;;;;5056208;28;20250;-54
2023/07/10 02:40:56;;;;;;;0.80;0.80;;;;;21.00;96357.00;;;;5056196;28;20686;-56
2023/07/10 02:43:25;;;;;;;2.08;1.80;;;;;21.00;96361.00;;;;5056373;28;20216;-57
2023/07/10 02:45:52;;;;;;;0.85;0.85;;;;;21.00;96375.00;;;;5056326;28;20685;-57
2023/07/10 02:48:20;;;;;;;0.70;0.70;;;;;20.70;96389.00;;;;5056506;28;20541;-56
2023/07/10 02:50:47;;;;;;;0.93;0.93;;;;;20.70;96413.00;;;;5056565;28;20246;-56
2023/07/10 02:53:14;;;;;;;0.70;0.70;;;;;20.40;96430.00;;;;5055925;28;20228;-56
2023/07/10 02:55:42;;;;;;;0.90;0.90;;;;;20.40;96417.00;;;;5056201;28;20531;-56
2023/07/10 02:58:10;;;;;;;2.03;1.87;;;;;20.60;96417.00;;;;5055911;28;20214;-55
2023/07/10 03:00:39;;;;;;;1.20;1.10;;;;;20.70;96412.00;;;;5055796;28;20192;-54
2023/07/10 03:03:06;;;;;;;1.07;1.00;;;;;20.80;96410.00;;;;5055690;28;20216;-55
2023/07/10 03:05:34;;;;;;;1.00;1.00;;;;;20.90;96435.00;;;;5055730;28;20184;-54
2023/07/10 03:08:01;;;;;;;0.97;0.97;;;;;21.00;96435.00;;;;5055678;28;20713;-55
2023/07/10 03:10:28;;;;;;;0.80;0.80;;;;;21.00;96433.00;;;;5055666;28;20663;-55
2023/07/10 03:12:56;;;;;;;1.23;1.15;;;;;21.00;96426.00;;;;5055318;28;20270;-55
2023/07/10 03:15:23;;;;;;;0.73;0.73;;;;;20.90;96416.00;;;;5055874;28;20194;-56
2023/07/10 03:17:52;;;;;;;1.10;1.10;;;;;20.90;96399.00;;;;5054234;28;20656;-55
2023/07/10 03:20:20;;;;;;;2.15;2.03;;;;;21.00;96413.00;;;;5055660;28;20188;-60
2023/07/10 03:22:47;;;;;;;1.48;1.38;;;;;20.80;96421.00;;;;5055254;28;20706;-55
2023/07/10 03:25:14;;;;;;;1.02;1.02;;;;;20.80;96428.00;;;;5055347;28;20261;-55
2023/07/10 03:27:42;;;;;;;1.25;0.65;;;;;20.70;96428.00;;;;5055223;28;20219;-56
2023/07/10 03:30:10;;;;;;;1.35;1.25;;;;;20.80;96438.00;;;;5055262;28;20555;-55
2023/07/10 03:32:37;;;;;;;1.13;1.13;;;;;20.90;96426.00;;;;5055373;28;20212;-56
2023/07/10 03:35:07;;;;;;;1.23;1.20;;;;;20.90;96422.00;;;;5055186;28;20196;-56
2023/07/10 03:37:35;;;;;;;1.20;1.20;;;;;21.10;96436.00;;;;5054983;28;20721;-55
2023/07/10 03:40:03;;;;;;;1.75;1.38;;;;;20.80;96438.00;;;;5055093;28;20199;-55
2023/07/10 03:42:30;;;;;;;1.52;1.42;;;;;20.70;96451.00;;;;5054981;28;20212;-56
2023/07/10 03:44:57;;;;;;;1.05;0.85;;;;;20.50;96450.00;;;;5054979;28;20204;-56
2023/07/10 03:47:25;;;;;;;3.87;1.90;;;;;20.50;96454.00;;;;5054931;28;20215;-55
2023/07/10 03:49:52;;;;;;;1.40;1.30;;;;;20.50;96456.00;;;;5054912;28;20493;-55
2023/07/10 03:52:21;;;;;;;1.77;1.67;;;;;20.50;96461.00;;;;5054802;28;20199;-56
2023/07/10 03:54:49;;;;;;;1.43;1.43;;;;;20.50;96464.00;;;;5055057;28;20196;-56
2023/07/10 03:57:16;;;;;;;0.83;0.83;;;;;20.60;96468.00;;;;5054965;28;20200;-56
2023/07/10 03:59:43;;;;;;;1.30;1.27;;;;;20.60;96469.00;;;;5053510;28;20667;-55
2023/07/10 04:02:11;;;;;;;1.05;0.90;;;;;20.60;96465.00;;;;5054815;28;20199;-55
2023/07/10 04:04:38;;;;;;;1.10;1.10;;;;;20.70;96456.00;;;;5054629;28;20207;-55
2023/07/10 04:07:06;;;;;;;1.50;1.40;;;;;20.80;96448.00;;;;5054507;28;20208;-55
2023/07/10 04:09:35;;;;;;;1.17;1.15;;;;;20.90;96435.00;;;;5053198;28;20232;-55
2023/07/10 04:12:03;;;;;;;0.88;0.88;;;;;21.00;96434.00;;;;5054548;28;20196;-56
2023/07/10 04:14:30;;;;;;;1.63;1.50;;;;;21.00;96425.00;;;;5054452;28;20192;-55
2023/07/10 04:16:58;;;;;;;1.07;1.07;;;;;21.00;96432.00;;;;5054630;28;20651;-55
2023/07/10 04:19:26;;;;;;;0.70;0.70;;;;;20.70;96447.00;;;;5054424;28;20207;-55
2023/07/10 04:21:53;;;;;;;0.90;0.90;;;;;20.30;96453.00;;;;5054488;28;20192;-55
2023/07/10 04:24:20;;;;;;;0.90;0.90;;;;;20.20;96440.00;;;;5053448;28;20219;-55
2023/07/10 04:26:49;;;;;;;0.65;0.65;;;;;20.40;96418.00;;;;5054325;28;20223;-55
2023/07/10 04:29:18;;;;;;;1.00;1.00;;;;;20.60;96407.00;;;;5054196;28;20197;-55
2023/07/10 04:31:46;;;;;;;1.50;1.40;;;;;20.80;96415.00;;;;5052888;28;20196;-55
2023/07/10 04:34:13;;;;;;;1.15;1.15;;;;;20.80;96435.00;;;;5053986;28;20334;-56
2023/07/10 04:36:42;;;;;;;1.17;1.17;;;;;20.30;96507.00;;;;5053972;28;20709;-55
2023/07/10 04:39:09;;;;;;;0.60;0.60;;;;;20.00;96525.00;;;;5054680;28;20219;-60
2023/07/10 04:41:38;;;;;;;1.30;1.20;;;;;20.00;96508.00;;;;5053950;28;20199;-55
2023/07/10 04:44:07;;;;;;;1.13;1.13;;;;;20.30;96521.00;;;;5053898;28;20216;-55
2023/07/10 04:46:35;;;;;;;0.90;0.90;;;;;20.60;96526.00;;;;5054348;28;20577;-56
2023/07/10 04:49:03;;;;;;;1.10;1.10;;;;;20.70;96532.00;;;;5053791;28;20610;-56
2023/07/10 04:51:30;;;;;;;0.83;0.83;;;;;20.70;96548.00;;;;5054155;28;20246;-54
2023/07/10 04:53:58;;;;;;;1.65;0.95;;;;;21.00;96542.00;;;;5053577;28;20211;-55
2023/07/10 04:56:25;;;;;;;2.20;2.03;;;;;21.20;96536.00;;;;5053556;28;20192;-55
2023/07/10 04:58:54;;;;;;;0.85;0.85;;;;;21.50;96535.00;;;;5053788;28;20188;-55
2023/07/10 05:01:26;;;;;;;1.58;1.48;;;;;21.60;96518.00;;;;5053616;28;20192;-55
2023/07/10 05:03:54;;;;;;;1.33;1.33;;;;;21.80;96499.00;;;;5053812;28;20226;-56
2023/07/10 05:06:22;;;;;;;1.40;1.35;;;;;22.00;96519.00;;;;5053638;28;20188;-54
2023/07/10 05:08:51;;;;;;;1.38;1.25;;;;;22.10;96502.00;;;;5053740;28;20188;-55
2023/07/10 05:11:19;;;;;;;2.50;2.30;;;;;22.30;96491.00;;;;5053950;28;20651;-58
2023/07/10 05:13:46;;;;;;;2.03;1.92;;;;;22.40;96490.00;;;;5053443;28;20281;-55
2023/07/10 05:16:15;;;;;;;1.02;1.02;;;;;22.60;96486.00;;;;5053308;28;20192;-55
2023/07/10 05:18:44;;;;;;;1.27;1.27;;;;;22.60;96490.00;;;;5053236;28;20297;-55
2023/07/10 05:21:11;;;;;;;0.90;0.90;;;;;22.40;96488.00;;;;5053392;28;20242;-57
2023/07/10 05:23:39;;;;;;;1.63;1.52;;;;;22.50;96478.00;;;;5053301;28;20269;-55
2023/07/10 05:26:10;;;;;;;1.42;1.33;;;;;22.30;96476.00;;;;5053392;28;20188;-54
2023/07/10 05:28:38;;;;;;;1.00;1.00;;;;;22.30;96480.00;;;;5053317;28;20725;-55
2023/07/10 05:31:07;;;;;;;1.75;1.65;;;;;22.40;96477.00;;;;5053094;28;20659;-57
2023/07/10 05:33:35;;;;;;;0.75;0.75;;;;;22.40;96488.00;;;;5052991;28;20216;-55
2023/07/10 05:36:06;;;;;;;1.10;1.10;;;;;22.50;96509.00;;;;5052887;28;20192;-57
2023/07/10 05:38:35;;;;;;;1.20;1.20;;;;;22.30;96537.00;;;;5053289;28;20547;-55
2023/07/10 05:41:03;;;;;;;1.30;1.30;;;;;22.50;96558.00;;;;5052949;28;20196;-57
2023/07/10 05:43:31;;;;;;;0.93;0.93;;;;;22.50;96549.00;;;;5052816;28;20628;-55
2023/07/10 05:45:59;;;;;;;0.70;0.70;;;;;22.80;96556.00;;;;5052890;28;20298;-57
2023/07/10 05:48:27;;;;;;;1.38;1.33;;;;;23.00;96562.00;;;;5052928;28;20219;-55
2023/07/10 05:50:54;;;;;;;1.70;1.60;;;;;22.90;96577.00;;;;5052820;28;20196;-56
2023/07/10 05:53:23;;;;;;;0.90;0.90;;;;;23.00;96567.00;;;;5052927;28;20215;-55
2023/07/10 05:55:52;;;;;;;4.43;0.98;;;;;22.70;96560.00;;;;5052850;28;20203;-54
2023/07/10 05:58:21;;;;;;;1.08;1.08;;;;;22.90;96557.00;;;;5052532;28;20184;-55
2023/07/10 06:00:51;;;;;;;1.10;1.10;;;;;23.20;96556.00;;;;5052691;28;20188;-55
2023/07/10 06:03:19;;;;;;;1.60;1.25;;;;;23.30;96546.00;;;;5052526;28;20216;-55
2023/07/10 06:05:55;;;;;;;1.23;1.15;;;;;23.60;96542.00;;;;5052848;28;20196;-55
2023/07/10 06:08:24;;;;;;;0.82;0.82;;;;;23.70;96545.00;;;;5052781;28;20206;-57
2023/07/10 06:10:52;;;;;;;0.82;0.82;;;;;23.80;96546.00;;;;5052422;28;20663;-55
2023/07/10 06:13:21;;;;;;;0.95;0.95;;;;;23.70;96555.00;;;;5052371;28;20326;-55
2023/07/10 06:15:51;;;;;;;1.10;1.08;;;;;23.80;96554.00;;;;5052621;28;20206;-55
2023/07/10 06:18:19;;;;;;;1.48;1.38;;;;;24.00;96554.00;;;;5053107;28;20188;-56
2023/07/10 06:20:52;;;;;;;1.20;1.20;;;;;23.80;96552.00;;;;5052412;28;20192;-56
2023/07/10 06:23:20;;;;;;;0.80;0.80;;;;;23.60;96539.00;;;;5052311;28;20303;-55
2023/07/10 06:25:49;;;;;;;1.58;1.50;;;;;23.80;96538.00;;;;5052293;28;20200;-56
2023/07/10 06:28:16;;;;;;;2.95;1.83;;;;;23.80;96544.00;;;;5048233;28;20212;-55
2023/07/10 06:30:53;;;;;;;1.17;1.13;;;;;23.80;96533.00;;;;5048615;28;20572;-55
2023/07/10 06:33:21;;;;;;;1.05;0.95;;;;;23.90;96534.00;;;;5046454;28;20215;-55
2023/07/10 06:35:48;;;;;;;1.55;1.40;;;;;23.90;96532.00;;;;5050085;28;20196;-57
2023/07/10 06:38:16;;;;;;;1.55;1.40;;;;;24.10;96511.00;;;;5050256;28;20694;-55
2023/07/10 06:40:43;;;;;;;2.00;1.80;;;;;24.30;96509.00;;;;5050221;28;20200;-55
2023/07/10 06:43:12;;;;;;;5.00;1.30;;;;;24.50;96520.00;;;;5050248;28;20227;-55
2023/07/10 06:45:40;;;;;;;1.60;1.40;;;;;24.30;96515.00;;;;5047750;28;20188;-56
2023/07/10 06:48:08;;;;;;;1.70;1.60;;;;;24.30;96526.00;;;;5048751;28;20582;-55
2023/07/10 06:50:35;;;;;;;1.73;1.63;;;;;24.50;96529.00;;;;5054044;28;20228;-58
2023/07/10 06:53:03;;;;;;;1.65;0.63;;;;;24.50;96519.00;;;;5053911;28;20227;-56
2023/07/10 06:55:33;;;;;;;1.35;1.33;;;;;24.70;96523.00;;;;5054179;28;20609;-56
2023/07/10 06:58:00;;;;;;;1.27;1.27;;;;;25.00;96530.00;;;;5053961;28;20223;-56
2023/07/10 07:00:29;;;;;;;1.58;1.48;;;;;25.30;96532.00;;;;5053848;28;20203;-56
2023/07/10 07:02:57;;;;;;;1.88;1.58;;;;;25.30;96540.00;;;;5053638;28;20216;-56
2023/07/10 07:05:24;;;;;;;1.27;1.20;;;;;25.40;96534.00;;;;5053689;28;20196;-56
2023/07/10 07:07:52;;;;;;;1.23;1.23;;;;;25.60;96533.00;;;;5053584;28;20242;-55
2023/07/10 07:10:19;;;;;;;0.85;0.85;;;;;25.70;96536.00;;;;5053480;28;20196;-56
2023/07/10 07:12:47;;;;;;;2.20;1.95;;;;;25.90;96547.00;;;;5053364;28;20230;-55
2023/07/10 07:15:15;;;;;;;0.93;0.93;;;;;26.00;96554.00;;;;5052275;28;20214;-55
2023/07/10 07:17:44;;;;;;;1.13;0.93;;;;;25.90;96554.00;;;;5053697;28;20269;-56
2023/07/10 07:20:12;;;;;;;0.98;0.98;;;;;26.20;96550.00;;;;5052912;28;20192;-55
2023/07/10 07:22:40;;;;;;;0.80;0.80;;;;;26.20;96562.00;;;;5053564;28;20208;-56
2023/07/10 07:25:07;;;;;;;2.70;1.23;;;;;26.30;96562.00;;;;5052713;28;20659;-56
2023/07/10 07:27:35;;;;;;;1.13;0.93;;;;;26.20;96580.00;;;;5053502;28;20220;-55
2023/07/10 07:30:05;;;;;;;2.72;1.42;;;;;26.00;96572.00;;;;5052958;28;20200;-56
2023/07/10 07:32:33;;;;;;;1.83;1.33;;;;;26.10;96576.00;;;;5053663;28;20228;-58
2023/07/10 07:35:02;;;;;;;1.02;1.02;;;;;26.30;96574.00;;;;5052901;28;20634;-56
2023/07/10 07:37:29;;;;;;;0.93;0.93;;;;;26.50;96583.00;;;;5052930;28;20219;-56
2023/07/10 07:39:59;;;;;;;0.70;0.70;;;;;26.60;96578.00;;;;5050575;28;20199;-56
2023/07/10 07:42:28;;;;;;;1.48;1.38;;;;;26.50;96589.00;;;;5052977;28;20326;-57
2023/07/10 07:44:58;;;;;;;0.75;0.75;;;;;26.20;96586.00;;;;5052706;28;20200;-56
2023/07/10 07:47:26;;;;;;;1.23;1.17;;;;;26.30;96592.00;;;;5052581;28;20254;-56
2023/07/10 07:49:54;;;;;;;0.98;0.98;;;;;26.20;96574.00;;;;5053006;28;20212;-56
2023/07/10 07:52:23;;;;;;;1.05;1.05;;;;;26.50;96578.00;;;;5053308;28;20242;-56
2023/07/10 07:54:51;;;;;;;1.60;1.50;;;;;26.70;96580.00;;;;5052540;28;20200;-56
2023/07/10 07:57:18;;;;;;;0.90;0.90;;;;;26.80;96582.00;;;;5053384;28;20202;-56
2023/07/10 07:59:46;;;;;;;0.68;0.68;;;;;26.60;96577.00;;;;5051055;28;20577;-56
2023/07/10 08:02:13;;;;;;;0.93;0.93;;;;;26.80;96582.00;;;;5053621;28;20195;-56
2023/07/10 08:04:42;;;;;;;1.33;1.25;;;;;27.20;96572.00;;;;5047796;28;20559;-56
2023/07/10 08:07:09;;;;;;;1.25;1.20;;;;;27.40;96574.00;;;;5053029;28;20204;-56
2023/07/10 08:09:38;;;;;;;0.82;0.80;;;;;27.00;96567.00;;;;5047740;28;20212;-56
2023/07/10 08:12:07;;;;;;;0.90;0.90;;;;;27.30;96567.00;;;;5052727;28;20211;-56
2023/07/10 08:14:34;;;;;;;1.75;1.45;;;;;27.20;96562.00;;;;5051937;28;20208;-56
2023/07/10 08:17:02;;;;;;;1.00;1.00;;;;;27.10;96570.00;;;;5052862;28;20573;-56
2023/07/10 08:19:30;;;;;;;1.85;1.75;;;;;27.20;96568.00;;;;5051919;28;20192;-56
2023/07/10 08:21:57;;;;;;;0.82;0.82;;;;;27.50;96564.00;;;;5052553;28;20276;-56
2023/07/10 08:24:25;;;;;;;1.63;1.52;;;;;27.40;96560.00;;;;5052055;28;20240;-56
2023/07/10 08:26:53;;;;;;;1.50;1.35;;;;;27.80;96555.00;;;;5052034;28;20208;-56
2023/07/10 08:29:26;;;;;;;0.80;0.80;;;;;27.60;96562.00;;;;5051898;28;20239;-56
2023/07/10 08:31:54;;;;;;;1.52;1.42;;;;;27.60;96568.00;;;;5051965;28;20200;-56
2023/07/10 08:34:22;;;;;;;1.02;1.02;;;;;27.30;96570.00;;;;5051895;28;20223;-56
2023/07/10 08:36:52;;;;;;;1.00;1.00;;;;;27.10;96560.00;;;;5051904;28;20196;-56
2023/07/10 08:39:19;;;;;;;1.45;1.35;;;;;27.10;96561.00;;;;5051842;28;20254;-56
2023/07/10 08:41:52;;;;;;;1.00;1.00;;;;;27.20;96566.00;;;;5051790;28;20531;-56
2023/07/10 08:44:24;;;;;;;0.57;0.57;;;;;26.80;96580.00;;;;5050962;28;20222;-56
2023/07/10 08:46:52;;;;;;;0.82;0.82;;;;;26.80;96574.00;;;;5051860;28;20196;-56
2023/07/10 08:49:30;;;;;;;0.95;0.95;;;;;27.00;96563.00;;;;5051621;28;20224;-56
2023/07/10 08:52:03;;;;;;;1.30;1.20;;;;;27.30;96565.00;;;;5051734;28;20200;-56
2023/07/10 08:54:31;;;;;;;1.55;1.52;;;;;27.50;96560.00;;;;5051521;28;20198;-56
2023/07/10 08:57:12;;;;;;;0.88;0.88;;;;;28.00;96564.00;;;;5051950;28;20188;-56
2023/07/10 08:59:49;;;;;;;1.33;1.30;;;;;28.00;96552.00;;;;5051131;28;20184;-56
2023/07/10 09:02:22;;;;;;;1.42;1.33;;;;;28.00;96561.00;;;;5050426;28;20192;-56
2023/07/10 09:04:51;;;;;;;0.93;0.93;;;;;28.30;96555.00;;;;5051403;28;20651;-56
2023/07/10 09:07:20;;;;;;;2.38;1.77;;;;;28.70;96565.00;;;;5051260;28;20200;-56
2023/07/10 09:09:52;;;;;;;0.98;0.98;;;;;28.20;96566.00;;;;5051459;28;20253;-55
2023/07/10 09:12:28;;;;;;;4.43;1.80;;;;;28.20;96567.00;;;;5050652;28;20192;-56
2023/07/10 09:15:02;;;;;;;1.75;1.08;;;;;28.60;96572.00;;;;5051259;28;20272;-56
2023/07/10 09:17:41;;;;;;;1.10;1.10;;;;;28.60;96570.00;;;;5051208;28;20259;-56
2023/07/10 09:20:11;;;;;;;1.40;1.35;;;;;28.40;96570.00;;;;5051436;28;20555;-56
2023/07/10 09:22:46;;;;;;;2.17;1.98;;;;;28.40;96557.00;;;;5051092;28;20216;-56
2023/07/10 09:25:15;;;;;;;1.30;1.30;;;;;28.60;96563.00;;;;5050971;28;20198;-56
2023/07/10 09:27:43;;;;;;;1.23;1.23;;;;;28.50;96553.00;;;;5050678;28;20200;-56
2023/07/10 09:30:26;;;;;;;1.15;1.15;;;;;29.00;96571.00;;;;5049762;28;20200;-56
2023/07/10 09:33:00;;;;;;;1.23;1.23;;;;;28.80;96570.00;;;;5050796;28;20246;-56
2023/07/10 09:35:27;;;;;;;1.23;1.17;;;;;29.00;96569.00;;;;5051310;28;20204;-56
2023/07/10 09:37:56;;;;;;;1.27;1.20;;;;;28.60;96571.00;;;;5049360;28;20204;-56
2023/07/10 09:40:35;;;;;;;0.63;0.63;;;;;28.30;96576.00;;;;5049647;28;20196;-56
2023/07/10 09:43:04;;;;;;;2.08;1.88;;;;;28.40;96579.00;;;;5049684;28;20609;-56
2023/07/10 09:45:36;;;;;;;1.95;1.55;;;;;28.50;96569.00;;;;5051164;28;20203;-56
2023/07/10 09:48:14;;;;;;;0.82;0.82;;;;;28.20;96565.00;;;;5050463;28;20188;-56
2023/07/10 09:50:46;;;;;;;0.90;0.90;;;;;28.60;96564.00;;;;5051487;28;20554;-56
2023/07/10 09:53:27;;;;;;;1.60;1.50;;;;;29.10;96566.00;;;;5050379;28;20247;-56
2023/07/10 09:55:55;;;;;;;1.52;1.42;;;;;29.30;96561.00;;;;5050702;28;20192;-56
2023/07/10 09:58:22;;;;;;;0.90;0.90;;;;;29.30;96569.00;;;;5050823;28;20529;-56
2023/07/10 10:00:51;;;;;;;1.23;1.20;;;;;29.20;96573.00;;;;5050961;28;20192;-56
2023/07/10 10:03:24;;;;;;;0.98;0.98;;;;;28.90;96575.00;;;;5049601;28;20220;-56
2023/07/10 10:05:54;;;;;;;1.55;1.48;;;;;28.30;96566.00;;;;5051059;28;20218;-56
2023/07/10 10:08:28;;;;;;;1.05;1.05;;;;;28.40;96562.00;;;;5050239;28;20655;-56
2023/07/10 10:11:07;;;;;;;1.40;1.40;;;;;28.20;96555.00;;;;5050932;28;20196;-55
2023/07/10 10:13:41;;;;;;;0.82;0.82;;;;;28.30;96550.00;;;;5050107;28;20686;-55
2023/07/10 10:16:24;;;;;;;0.98;0.98;;;;;28.50;96560.00;;;;5051098;28;20211;-56
2023/07/10 10:18:56;;;;;;;6.93;1.13;;;;;28.60;96551.00;;;;5048941;28;20548;-56
2023/07/10 10:21:24;;;;;;;1.15;1.05;;;;;28.90;96568.00;;;;5050873;28;20184;-55
2023/07/10 10:23:57;;;;;;;1.58;1.50;;;;;28.50;96562.00;;;;5052793;28;20227;-55
2023/07/10 10:26:41;;;;;;;1.80;1.70;;;;;28.70;96557.00;;;;5054581;28;20192;-56
2023/07/10 10:29:22;;;;;;;0.85;0.85;;;;;28.50;96560.00;;;;5049178;28;20204;-55
2023/07/10 10:31:58;;;;;;;1.23;1.23;;;;;28.00;96561.00;;;;5054279;28;20657;-56
2023/07/10 10:34:36;;;;;;;0.93;0.93;;;;;28.10;96561.00;;;;5054385;28;20616;-56
2023/07/10 10:37:19;;;;;;;3.00;1.25;;;;;28.30;96563.00;;;;5054405;28;20203;-56
2023/07/10 10:39:53;;;;;;;0.77;0.77;;;;;28.70;96557.00;;;;5054181;28;20184;-55
2023/07/10 10:42:28;;;;;;;0.90;0.90;;;;;28.70;96567.00;;;;5054085;28;20207;-55
2023/07/10 10:45:05;;;;;;;4.25;2.03;;;;;28.80;96559.00;;;;5051658;28;20604;-55
2023/07/10 10:47:45;;;;;;;1.58;1.35;;;;;29.00;96561.00;;;;5054568;28;20245;-56
2023/07/10 10:50:38;;;;;;;1.45;1.23;;;;;28.60;96557.00;;;;5053616;28;20666;-56
2023/07/10 10:53:24;;;;;;;6.97;1.75;;;;;29.10;96576.00;;;;5054332;28;20216;-56
2023/07/10 10:56:07;;;;;;;0.85;0.85;;;;;29.40;96566.00;;;;5053505;28;20256;-56
2023/07/10 10:58:49;;;;;;;1.33;1.33;;;;;30.00;96555.00;;;;5054137;28;20522;-56
2023/07/10 11:01:31;;;;;;;1.27;1.20;;;;;29.40;96575.00;;;;5053475;28;20525;-56
2023/07/10 11:04:10;;;;;;;1.17;1.17;;;;;29.20;96555.00;;;;5052840;28;20212;-56
2023/07/10 11:06:45;;;;;;;1.23;1.13;;;;;29.60;96554.00;;;;5053500;28;20185;-55
2023/07/10 11:09:17;;;;;;;1.23;1.23;;;;;29.30;96553.00;;;;5053445;28;20207;-56
2023/07/10 11:11:45;;;;;;;0.68;0.68;;;;;29.50;96556.00;;;;5053527;28;20199;-56
2023/07/10 11:14:13;;;;;;;2.03;1.83;;;;;29.10;96562.00;;;;5053391;28;20250;-55
2023/07/10 11:16:42;;;;;;;1.75;1.38;;;;;29.20;96542.00;;;;5053591;28;20274;-56
2023/07/10 11:19:16;;;;;;;1.10;1.10;;;;;28.90;96544.00;;;;5053494;28;20196;-55
2023/07/10 11:21:44;;;;;;;0.85;0.85;;;;;28.70;96552.00;;;;5053449;28;20187;-55
2023/07/10 11:24:18;;;;;;;2.97;1.48;;;;;28.90;96544.00;;;;5053715;28;20547;-55
2023/07/10 11:26:52;;;;;;;0.95;0.95;;;;;29.40;96534.00;;;;5053361;28;20195;-56
2023/07/10 11:29:28;;;;;;;1.00;1.00;;;;;29.50;96535.00;;;;5053276;28;20215;-55
2023/07/10 11:31:58;;;;;;;2.28;1.77;;;;;29.60;96530.00;;;;5053342;28;20188;-55
2023/07/10 11:34:57;;;;;;;2.08;1.00;;;;;29.70;96520.00;;;;5052805;28;20239;-55
2023/07/10 11:38:07;;;;;;;1.63;1.52;;;;;29.50;96524.00;;;;5052074;28;20207;-55
2023/07/10 11:40:50;;;;;;;1.25;1.17;;;;;30.20;96503.00;;;;5053000;28;20188;-56
2023/07/10 11:43:57;;;;;;;1.20;1.17;;;;;29.80;96514.00;;;;5053108;28;20702;-55
2023/07/10 11:46:35;;;;;;;1.63;1.52;;;;;29.80;96510.00;;;;4987016;28;20190;-55
2023/07/10 11:49:18;;;;;;;1.85;1.75;;;;;29.90;96502.00;;;;5046924;28;20224;-56
2023/07/10 11:52:11;;;;;;;3.08;1.95;;;;;30.30;96504.00;;;;5052512;28;20192;-55
2023/07/10 11:54:40;;;;;;;0.57;0.57;;;;;30.10;96503.00;;;;5052909;28;20647;-56
2023/07/10 11:57:15;;;;;;;1.70;1.60;;;;;29.90;96507.00;;;;5052276;28;20296;-56
2023/07/10 11:59:49;;;;;;;1.38;1.27;;;;;29.80;96493.00;;;;5051404;28;20199;-55
2023/07/10 12:02:31;;;;;;;1.15;1.15;;;;;30.60;96499.00;;;;5052500;28;20193;-56
2023/07/10 12:05:00;;;;;;;0.95;0.95;;;;;30.60;96504.00;;;;5049653;28;20253;-55
2023/07/10 12:07:29;;;;;;;0.95;0.95;;;;;31.60;96493.00;;;;5051355;28;20705;-56
2023/07/10 12:10:00;;;;;;;1.58;1.50;;;;;30.90;96501.00;;;;5051004;28;20227;-56
2023/07/10 12:12:33;;;;;;;0.88;0.88;;;;;30.20;96523.00;;;;5052216;28;20325;-55
2023/07/10 12:15:04;;;;;;;0.88;0.88;;;;;30.20;96488.00;;;;5052787;28;20275;-56
2023/07/10 12:17:33;;;;;;;0.93;0.93;;;;;30.90;96484.00;;;;5052281;28;20287;-56
2023/07/10 12:20:05;;;;;;;3.60;1.50;;;;;30.70;96484.00;;;;5052979;28;20567;-55
2023/07/10 12:22:37;;;;;;;0.90;0.90;;;;;29.90;96493.00;;;;5052414;28;20220;-56
2023/07/10 12:25:11;;;;;;;0.80;0.80;;;;;30.50;96488.00;;;;5048076;28;20203;-56
2023/07/10 12:27:39;;;;;;;1.58;1.48;;;;;30.20;96487.00;;;;5051821;28;20205;-55
2023/07/10 12:30:16;;;;;;;1.23;1.23;;;;;30.40;96487.00;;;;5052139;28;20216;-55
2023/07/10 12:32:44;;;;;;;2.08;1.88;;;;;30.50;96498.00;;;;5052022;28;20220;-55
2023/07/10 12:35:17;;;;;;;6.60;1.38;;;;;30.70;96491.00;;;;5051913;28;20254;-55